createdAt,value
2018-04-26T00:01:03.625Z,11.60
2018-04-26T00:03:31.439Z,9.10
2018-04-26T00:05:58.978Z,12.45
2018-04-26T00:08:26.453Z,14.13
2018-04-26T00:10:55.092Z,9.77
2018-04-26T00:13:22.550Z,9.40
2018-04-26T00:15:50.046Z,11.60
2018-04-26T00:18:18.622Z,10.38
2018-04-26T00:20:46.911Z,9.50
2018-04-26T00:23:14.567Z,12.20
2018-04-26T00:25:42.332Z,11.60
2018-04-26T00:28:09.807Z,10.77
2018-04-26T00:30:37.310Z,7.57
2018-04-26T00:33:04.813Z,5.20
2018-04-26T00:35:32.322Z,6.35
2018-04-26T00:37:59.813Z,2.65
2018-04-26T00:40:28.418Z,3.45
2018-04-26T00:42:56.071Z,3.30
2018-04-26T00:45:24.441Z,6.18
2018-04-26T00:47:52.182Z,4.68
2018-04-26T00:50:20.076Z,3.10
2018-04-26T00:52:47.555Z,3.00
2018-04-26T00:55:15.436Z,2.25
2018-04-26T00:57:42.938Z,0.85
2018-04-26T01:00:10.442Z,1.27
2018-04-26T01:02:38.269Z,3.20
2018-04-26T01:05:06.180Z,2.05
2018-04-26T01:07:34.027Z,3.60
2018-04-26T01:10:01.789Z,4.03
2018-04-26T01:12:29.267Z,2.00
2018-04-26T01:14:56.732Z,3.30
2018-04-26T01:17:24.469Z,2.55
2018-04-26T01:19:51.955Z,2.25
2018-04-26T01:22:19.429Z,1.67
2018-04-26T01:24:47.218Z,2.53
2018-04-26T01:27:15.470Z,1.70
2018-04-26T01:29:42.950Z,2.75
2018-04-26T01:32:10.762Z,4.97
2018-04-26T01:34:38.224Z,0.77
2018-04-26T01:37:17.918Z,3.03
2018-04-26T01:39:46.163Z,4.55
2018-04-26T01:42:13.660Z,3.67
2018-04-26T01:44:42.230Z,3.70
2018-04-26T01:47:09.707Z,5.25
2018-04-26T01:49:37.190Z,3.83
2018-04-26T01:52:05.006Z,3.80
2018-04-26T01:54:32.494Z,2.67
2018-04-26T01:56:59.946Z,2.97
2018-04-26T01:59:27.751Z,3.95
2018-04-26T02:01:55.224Z,4.57
2018-04-26T02:04:23.562Z,5.10
2018-04-26T02:06:51.316Z,6.28
2018-04-26T02:09:18.795Z,3.30
2018-04-26T02:11:46.249Z,3.55
2018-04-26T02:14:14.180Z,4.75
2018-04-26T02:16:41.646Z,4.03
2018-04-26T02:19:09.102Z,2.97
2018-04-26T02:21:36.866Z,3.28
2018-04-26T02:24:04.402Z,5.53
2018-04-26T02:26:31.870Z,4.25
2018-04-26T02:29:00.442Z,2.10
2018-04-26T02:31:28.683Z,3.97
2018-04-26T02:33:56.143Z,2.55
2018-04-26T02:36:23.938Z,6.18
2018-04-26T02:38:52.175Z,7.28
2018-04-26T02:41:19.649Z,4.75
2018-04-26T02:43:47.538Z,8.52
2018-04-26T02:46:15.814Z,4.72
2018-04-26T02:48:43.318Z,5.65
2018-04-26T02:51:11.079Z,6.20
2018-04-26T02:53:38.538Z,7.00
2018-04-26T02:56:06.034Z,7.40
2018-04-26T02:58:33.830Z,8.30
2018-04-26T03:01:01.331Z,5.70
2018-04-26T03:03:28.837Z,3.40
2018-04-26T03:05:57.690Z,3.85
2018-04-26T03:08:25.185Z,5.03
2018-04-26T03:10:53.410Z,5.30
2018-04-26T03:13:21.251Z,6.15
2018-04-26T03:15:48.717Z,5.75
2018-04-26T03:18:16.194Z,4.28
2018-04-26T03:20:44.142Z,6.18
2018-04-26T03:23:11.602Z,9.32
2018-04-26T03:25:39.067Z,6.25
2018-04-26T03:28:06.892Z,9.73
2018-04-26T03:30:35.123Z,7.10
2018-04-26T03:33:02.613Z,5.65
2018-04-26T03:35:30.577Z,10.85
2018-04-26T03:37:58.822Z,6.75
2018-04-26T03:40:26.331Z,10.10
2018-04-26T03:42:54.886Z,6.25
2018-04-26T03:45:23.147Z,5.62
2018-04-26T03:47:50.637Z,10.50
2018-04-26T03:50:19.306Z,7.40
2018-04-26T03:52:47.546Z,4.53
2018-04-26T03:55:15.129Z,7.22
2018-04-26T03:57:42.858Z,6.72
2018-04-26T04:00:22.086Z,9.52
2018-04-26T04:03:01.777Z,5.03
2018-04-26T04:05:35.047Z,11.95
2018-04-26T04:08:02.548Z,14.75
2018-04-26T04:10:30.837Z,8.50
2018-04-26T04:12:58.326Z,15.02
2018-04-26T04:15:26.332Z,10.50
2018-04-26T04:17:53.828Z,4.60
2018-04-26T04:20:21.355Z,11.35
2018-04-26T04:22:50.169Z,14.40
2018-04-26T04:25:17.697Z,9.52
2018-04-26T04:27:45.287Z,13.48
2018-04-26T04:30:13.159Z,11.20
2018-04-26T04:32:40.625Z,10.60
2018-04-26T04:35:08.141Z,8.90
2018-04-26T04:37:35.902Z,10.57
2018-04-26T04:40:04.150Z,17.02
2018-04-26T04:42:31.610Z,15.82
2018-04-26T04:44:59.500Z,10.60
2018-04-26T04:47:26.984Z,10.57
2018-04-26T04:49:54.494Z,11.60
2018-04-26T04:52:22.274Z,8.05
2018-04-26T04:54:51.318Z,11.27
2018-04-26T04:57:18.791Z,11.02
2018-04-26T04:59:46.594Z,7.90
2018-04-26T05:02:14.822Z,10.88
2018-04-26T05:04:42.301Z,12.82
2018-04-26T05:07:10.206Z,11.12
2018-04-26T05:09:37.686Z,13.50
2018-04-26T05:12:05.165Z,9.75
2018-04-26T05:14:32.989Z,16.25
2018-04-26T05:17:01.223Z,14.52
2018-04-26T05:19:29.641Z,7.43
2018-04-26T05:21:58.335Z,8.25
2018-04-26T05:24:25.815Z,7.50
2018-04-26T05:26:53.294Z,9.13
2018-04-26T05:29:21.179Z,11.00
2018-04-26T05:31:48.661Z,9.80
2018-04-26T05:34:16.150Z,15.23
2018-04-26T05:36:45.063Z,15.00
2018-04-26T05:39:12.622Z,11.10
2018-04-26T05:41:40.089Z,8.75
2018-04-26T05:44:08.867Z,9.52
2018-04-26T05:46:36.935Z,12.73
2018-04-26T05:49:04.495Z,14.13
2018-04-26T05:51:33.502Z,10.13
2018-04-26T05:54:00.990Z,9.48
2018-04-26T05:56:28.514Z,13.82
2018-04-26T05:58:55.992Z,8.40
2018-04-26T06:01:24.287Z,11.60
2018-04-26T06:03:52.023Z,8.93
2018-04-26T06:06:19.812Z,10.32
2018-04-26T06:08:47.414Z,11.12
2018-04-26T06:11:15.048Z,13.40
2018-04-26T06:13:42.477Z,9.07
2018-04-26T06:16:10.020Z,8.25
2018-04-26T06:18:38.500Z,6.35
2018-04-26T06:21:06.919Z,11.15
2018-04-26T06:23:34.458Z,9.90
2018-04-26T06:26:02.102Z,11.20
2018-04-26T06:28:29.958Z,9.10
2018-04-26T06:30:58.574Z,9.90
2018-04-26T06:33:26.046Z,11.23
2018-04-26T06:35:53.675Z,9.63
2018-04-26T06:38:22.090Z,9.73
2018-04-26T06:40:49.697Z,7.95
2018-04-26T06:43:17.651Z,10.10
2018-04-26T06:45:45.245Z,11.07
2018-04-26T06:48:12.778Z,13.68
2018-04-26T06:50:40.559Z,12.68
2018-04-26T06:53:08.294Z,8.27
2018-04-26T06:55:35.855Z,10.33
2018-04-26T06:58:03.398Z,10.75
2018-04-26T07:00:31.011Z,9.37
2018-04-26T07:02:58.435Z,9.50
2018-04-26T07:05:26.003Z,10.53
2018-04-26T07:07:53.542Z,5.68
2018-04-26T07:10:21.200Z,7.32
2018-04-26T07:12:48.864Z,11.15
2018-04-26T07:15:18.059Z,11.23
2018-04-26T07:17:46.030Z,10.55
2018-04-26T07:20:13.955Z,13.48
2018-04-26T07:22:41.762Z,6.55
2018-04-26T07:25:09.291Z,11.30
2018-04-26T07:27:47.439Z,14.35
2018-04-26T07:30:15.196Z,11.57
2018-04-26T07:32:43.498Z,16.90
2018-04-26T07:35:15.277Z,10.73
2018-04-26T07:37:42.974Z,9.43
2018-04-26T07:43:14.176Z,13.62
2018-04-26T07:45:44.587Z,7.85
2018-04-26T07:48:14.562Z,7.20
2018-04-26T07:50:42.312Z,8.15
2018-04-26T07:53:09.931Z,14.00
2018-04-26T07:55:37.368Z,6.18
2018-04-26T07:58:05.265Z,11.02
2018-04-26T08:00:32.802Z,8.82
2018-04-26T08:03:00.307Z,10.90
2018-04-26T08:05:27.805Z,14.40
2018-04-26T08:07:55.285Z,11.18
2018-04-26T08:10:23.261Z,9.43
2018-04-26T08:12:50.768Z,7.35
2018-04-26T08:15:18.259Z,5.53
2018-04-26T08:17:46.565Z,10.65
2018-04-26T08:20:14.059Z,5.57
2018-04-26T08:22:41.550Z,4.22
2018-04-26T08:25:09.172Z,12.27
2018-04-26T08:27:36.678Z,6.07
2018-04-26T08:30:04.985Z,8.75
2018-04-26T08:32:32.556Z,5.05
2018-04-26T08:35:00.888Z,7.22
2018-04-26T08:37:28.398Z,7.45
2018-04-26T08:39:56.004Z,9.23
2018-04-26T08:42:24.105Z,4.80
2018-04-26T08:44:52.366Z,4.15
2018-04-26T08:47:19.950Z,5.87
2018-04-26T08:49:48.267Z,5.15
2018-04-26T08:52:15.855Z,9.65
2018-04-26T08:54:43.368Z,7.85
2018-04-26T08:57:11.181Z,10.45
2018-04-26T08:59:38.736Z,5.67
2018-04-26T09:02:07.047Z,8.57
2018-04-26T09:04:35.334Z,10.33
2018-04-26T09:07:02.830Z,9.10
2018-04-26T09:09:30.404Z,5.50
2018-04-26T09:11:58.509Z,10.25
2018-04-26T09:14:26.773Z,8.60
2018-04-26T09:16:55.032Z,6.60
2018-04-26T09:19:22.556Z,9.67
2018-04-26T09:21:50.106Z,6.83
2018-04-26T09:24:17.516Z,7.63
2018-04-26T09:26:45.372Z,13.00
2018-04-26T09:29:12.964Z,8.10
2018-04-26T09:31:41.235Z,9.63
2018-04-26T09:34:09.497Z,7.27
2018-04-26T09:36:36.987Z,8.67
2018-04-26T09:39:04.495Z,6.37
2018-04-26T09:41:32.001Z,8.37
2018-04-26T09:43:59.631Z,7.27
2018-04-26T09:46:27.186Z,8.23
2018-04-26T09:48:54.751Z,7.80
2018-04-26T09:51:23.066Z,12.07
2018-04-26T09:53:50.703Z,5.63
2018-04-26T09:56:19.099Z,3.20
2018-04-26T09:58:46.578Z,5.47
2018-04-26T10:01:21.109Z,7.00
2018-04-26T10:03:54.548Z,8.63
2018-04-26T10:06:28.719Z,5.13
2018-04-26T10:08:56.361Z,7.43
2018-04-26T10:11:23.875Z,5.60
2018-04-26T10:13:52.298Z,7.57
2018-04-26T10:16:19.840Z,7.80
2018-04-26T10:18:47.326Z,6.87
2018-04-26T10:21:14.839Z,6.73
2018-04-26T10:23:42.383Z,4.23
2018-04-26T10:26:10.683Z,8.60
2018-04-26T10:28:38.994Z,8.00
2018-04-26T10:31:06.515Z,4.03
2018-04-26T10:33:34.122Z,4.23
2018-04-26T10:36:01.615Z,4.37
2018-04-26T10:38:30.955Z,8.93
2018-04-26T10:40:58.512Z,5.87
2018-04-26T10:43:26.021Z,7.67
2018-04-26T10:45:53.517Z,5.60
2018-04-26T10:48:21.235Z,7.37
2018-04-26T10:50:49.039Z,7.07
2018-04-26T10:53:16.486Z,3.40
2018-04-26T10:55:44.717Z,9.63
2018-04-26T10:58:12.487Z,8.90
2018-04-26T11:00:40.016Z,7.90
2018-04-26T11:03:07.724Z,7.72
2018-04-26T11:05:35.609Z,6.43
2018-04-26T11:08:03.170Z,10.10
2018-04-26T11:10:30.710Z,8.88
2018-04-26T11:12:58.692Z,8.50
2018-04-26T11:15:26.286Z,7.22
2018-04-26T11:17:53.884Z,8.25
2018-04-26T11:20:21.702Z,10.93
2018-04-26T11:22:49.226Z,7.87
2018-04-26T11:25:16.853Z,7.20
2018-04-26T11:27:44.360Z,10.65
2018-04-26T11:30:11.844Z,5.97
2018-04-26T11:32:39.342Z,5.25
2018-04-26T11:35:06.842Z,9.05
2018-04-26T11:37:34.309Z,5.17
2018-04-26T11:40:04.741Z,8.20
2018-04-26T11:42:32.244Z,8.10
2018-04-26T11:44:59.710Z,9.83
2018-04-26T11:47:27.986Z,6.35
2018-04-26T11:49:55.907Z,6.93
2018-04-26T11:52:23.460Z,4.93
2018-04-26T11:54:50.916Z,7.80
2018-04-26T11:57:18.710Z,7.00
2018-04-26T11:59:46.189Z,3.47
2018-04-26T12:02:14.450Z,10.88
2018-04-26T12:04:42.060Z,7.57
2018-04-26T12:07:09.584Z,11.23
2018-04-26T12:09:37.845Z,6.72
2018-04-26T12:12:05.483Z,9.77
2018-04-26T12:14:32.972Z,5.62
2018-04-26T12:17:00.515Z,8.02
2018-04-26T12:19:28.045Z,8.35
2018-04-26T12:21:55.536Z,2.85
2018-04-26T12:24:23.074Z,8.63
2018-04-26T12:26:50.606Z,8.75
2018-04-26T12:29:18.129Z,3.70
2018-04-26T12:31:45.566Z,7.78
2018-04-26T12:34:13.128Z,8.50
2018-04-26T12:36:40.622Z,5.90
2018-04-26T12:39:09.069Z,8.17
2018-04-26T12:41:36.606Z,11.38
2018-04-26T12:44:04.085Z,5.03
2018-04-26T12:46:32.405Z,8.77
2018-04-26T12:49:00.274Z,4.95
2018-04-26T12:51:27.820Z,6.45
2018-04-26T12:53:55.373Z,5.05
2018-04-26T12:56:22.895Z,4.82
2018-04-26T12:58:50.382Z,8.48
2018-04-26T13:01:18.640Z,5.45
2018-04-26T13:03:46.324Z,7.43
2018-04-26T13:06:14.011Z,5.35
2018-04-26T13:08:41.518Z,7.65
2018-04-26T13:11:09.062Z,7.93
2018-04-26T13:13:36.549Z,5.12
2018-04-26T13:16:04.120Z,12.25
2018-04-26T13:18:31.635Z,6.67
2018-04-26T13:20:59.190Z,8.52
2018-04-26T13:23:26.855Z,17.70
2018-04-26T13:25:54.390Z,4.53
2018-04-26T13:28:21.881Z,5.03
2018-04-26T13:30:49.440Z,4.75
2018-04-26T13:33:17.012Z,5.80
2018-04-26T13:35:44.507Z,12.00
2018-04-26T13:38:12.026Z,4.80
2018-04-26T13:40:39.948Z,8.23
2018-04-26T13:43:07.448Z,8.75
2018-04-26T13:45:35.074Z,6.10
2018-04-26T13:48:03.010Z,4.80
2018-04-26T13:50:30.515Z,5.87
2018-04-26T13:52:58.024Z,3.63
2018-04-26T13:55:25.566Z,6.22
2018-04-26T13:57:53.079Z,8.45
2018-04-26T14:00:21.413Z,9.95
2018-04-26T14:02:48.987Z,5.28
2018-04-26T14:05:16.560Z,5.78
2018-04-26T14:07:44.075Z,4.90
2018-04-26T14:10:12.664Z,4.05
2018-04-26T14:12:40.933Z,5.37
2018-04-26T14:15:09.188Z,3.35
2018-04-26T14:17:37.496Z,7.27
2018-04-26T14:20:05.079Z,4.90
2018-04-26T14:22:32.592Z,6.40
2018-04-26T14:25:00.152Z,7.33
2018-04-26T14:27:27.704Z,4.72
2018-04-26T14:29:55.174Z,6.40
2018-04-26T14:32:23.430Z,5.37
2018-04-26T14:34:50.914Z,6.85
2018-04-26T14:37:19.216Z,2.80
2018-04-26T14:39:46.654Z,4.28
2018-04-26T14:42:14.158Z,5.23
2018-04-26T14:44:41.658Z,6.33
2018-04-26T14:49:45.200Z,7.78
2018-04-26T14:52:12.656Z,4.93
2018-04-26T14:54:40.135Z,5.37
2018-04-26T14:57:07.663Z,5.68
2018-04-26T14:59:35.278Z,6.00
2018-04-26T15:02:03.633Z,7.37
2018-04-26T15:04:31.118Z,2.70
2018-04-26T15:06:58.630Z,3.05
2018-04-26T15:09:26.203Z,5.78
2018-04-26T15:11:53.829Z,2.20
2018-04-26T15:14:21.443Z,6.28
2018-04-26T15:16:49.001Z,4.15
2018-04-26T15:19:16.506Z,6.87
2018-04-26T15:21:44.077Z,7.15
2018-04-26T15:24:12.338Z,7.03
2018-04-26T15:26:40.170Z,4.40
2018-04-26T15:29:07.829Z,5.90
2018-04-26T15:31:35.326Z,5.15
2018-04-26T15:34:03.712Z,4.55
2018-04-26T15:36:31.261Z,8.32
2018-04-26T15:38:58.769Z,8.73
2018-04-26T15:41:26.270Z,4.60
2018-04-26T15:43:54.575Z,5.25
2018-04-26T15:46:22.062Z,6.62
2018-04-26T15:48:50.477Z,7.40
2018-04-26T15:51:18.733Z,5.37
2018-04-26T15:53:59.037Z,5.37
2018-04-26T15:56:54.431Z,3.35
2018-04-26T15:59:33.863Z,6.03
2018-04-26T16:16:16.614Z,5.57
2018-04-26T16:18:59.290Z,4.45
2018-04-26T16:21:39.921Z,10.40
2018-04-26T16:24:19.203Z,4.90
2018-04-26T16:27:04.272Z,5.10
2018-04-26T16:29:43.608Z,5.15
2018-04-26T16:32:28.826Z,7.45
2018-04-26T16:35:13.937Z,5.60
2018-04-26T16:37:59.785Z,5.85
2018-04-26T16:40:27.270Z,5.87
2018-04-26T16:42:55.580Z,6.05
2018-04-26T16:45:23.046Z,2.95
2018-04-26T16:47:50.569Z,5.72
2018-04-26T16:50:19.454Z,4.50
2018-04-26T16:52:47.878Z,8.15
2018-04-26T16:55:15.554Z,11.75
2018-04-26T16:57:43.208Z,8.18
2018-04-26T17:00:10.773Z,9.32
2018-04-26T17:02:38.651Z,6.60
2018-04-26T17:05:06.399Z,3.87
2018-04-26T17:07:33.973Z,8.18
2018-04-26T17:10:01.604Z,8.52
2018-04-26T17:12:29.198Z,7.55
2018-04-26T17:14:56.747Z,4.97
2018-04-26T17:17:24.359Z,6.43
2018-04-26T17:19:52.734Z,3.78
2018-04-26T17:22:21.402Z,9.07
2018-04-26T17:24:49.698Z,5.10
2018-04-26T17:27:17.242Z,7.15
2018-04-26T17:29:44.723Z,10.60
2018-04-26T17:32:13.018Z,7.97
2018-04-26T17:34:40.586Z,10.60
2018-04-26T17:37:08.087Z,10.32
2018-04-26T17:39:35.568Z,11.63
2018-04-26T17:42:03.056Z,8.20
2018-04-26T17:44:32.140Z,7.20
2018-04-26T17:46:59.640Z,10.35
2018-04-26T17:49:27.182Z,10.90
2018-04-26T17:51:54.681Z,6.87
2018-04-26T17:54:22.942Z,10.05
2018-04-26T17:56:50.479Z,10.07
2018-04-26T17:59:18.285Z,6.10
2018-04-26T18:01:46.527Z,4.70
2018-04-26T18:04:14.051Z,10.40
2018-04-26T18:06:42.381Z,8.63
2018-04-26T18:09:10.658Z,8.93
2018-04-26T18:11:39.216Z,8.73
2018-04-26T18:14:06.710Z,6.28
2018-04-26T18:16:34.270Z,9.27
2018-04-26T18:19:02.537Z,7.47
2018-04-26T18:21:30.735Z,6.22
2018-04-26T18:23:58.222Z,7.60
2018-04-26T18:26:26.084Z,7.18
2018-04-26T18:28:53.581Z,9.20
2018-04-26T18:31:21.866Z,10.68
2018-04-26T18:33:50.208Z,6.80
2018-04-26T18:36:17.703Z,10.43
2018-04-26T18:38:45.960Z,7.37
2018-04-26T18:41:13.559Z,7.50
2018-04-26T18:43:41.086Z,10.30
2018-04-26T18:46:08.905Z,10.07
2018-04-26T18:48:37.166Z,8.98
2018-04-26T18:51:04.757Z,11.45
2018-04-26T18:53:32.171Z,8.63
2018-04-26T18:55:59.647Z,10.63
2018-04-26T18:58:27.134Z,13.60
2018-04-26T19:00:54.642Z,11.38
2018-04-26T19:03:22.128Z,9.90
2018-04-26T19:05:49.624Z,10.70
2018-04-26T19:08:17.172Z,10.40
2018-04-26T19:10:44.791Z,13.98
2018-04-26T19:13:14.578Z,15.10
2018-04-26T19:15:42.122Z,10.07
2018-04-26T19:18:09.608Z,12.70
2018-04-26T19:20:37.145Z,11.32
2018-04-26T19:23:04.637Z,15.23
2018-04-26T19:25:32.170Z,12.52
2018-04-26T19:27:59.928Z,13.05
2018-04-26T19:30:28.976Z,11.05
2018-04-26T19:32:56.504Z,9.80
2018-04-26T19:35:24.158Z,8.93
2018-04-26T19:37:51.689Z,8.13
2018-04-26T19:40:20.334Z,12.63
2018-04-26T19:42:50.002Z,11.82
2018-04-26T19:45:19.743Z,14.13
2018-04-26T19:47:49.207Z,9.93
2018-04-26T19:50:16.795Z,18.12
2018-04-26T19:52:44.739Z,13.25
2018-04-26T19:55:12.587Z,17.60
2018-04-26T19:57:41.039Z,13.80
2018-04-26T20:00:08.482Z,17.62
2018-04-26T20:02:35.990Z,16.65
2018-04-26T20:05:04.274Z,12.48
2018-04-26T20:07:31.758Z,17.60
2018-04-26T20:09:59.623Z,20.00
2018-04-26T20:12:27.179Z,9.90
2018-04-26T20:14:54.806Z,12.55
2018-04-26T20:17:23.365Z,11.95
2018-04-26T20:19:50.916Z,18.62
2018-04-26T20:22:18.495Z,12.05
2018-04-26T20:24:46.101Z,18.62
2018-04-26T20:27:13.694Z,15.60
2018-04-26T20:29:41.257Z,17.95
2018-04-26T20:32:08.742Z,10.43
2018-04-26T20:34:37.013Z,17.75
2018-04-26T20:37:06.600Z,14.05
2018-04-26T20:39:34.090Z,15.18
2018-04-26T20:42:02.372Z,17.90
2018-04-26T20:44:41.546Z,13.70
2018-04-26T20:47:09.023Z,11.40
2018-04-26T20:49:36.494Z,13.23
2018-04-26T20:52:04.366Z,12.85
2018-04-26T20:54:32.594Z,24.77
2018-04-26T20:57:00.102Z,13.00
2018-04-26T20:59:28.791Z,16.77
2018-04-26T21:01:57.090Z,12.95
2018-04-26T21:04:24.660Z,10.30
2018-04-26T21:06:53.479Z,12.55
2018-04-26T21:09:21.112Z,13.38
2018-04-26T21:11:51.699Z,12.25
2018-04-26T21:14:19.538Z,16.35
2018-04-26T21:16:48.053Z,14.80
2018-04-26T21:19:15.746Z,12.15
2018-04-26T21:21:44.055Z,15.00
2018-04-26T21:24:11.661Z,14.20
2018-04-26T21:26:39.272Z,13.15
2018-04-26T21:29:06.928Z,12.23
2018-04-26T21:31:34.475Z,11.60
2018-04-26T21:34:02.057Z,12.10
2018-04-26T21:36:29.603Z,11.68
2018-04-26T21:38:57.187Z,22.48
2018-04-26T21:41:25.585Z,15.57
2018-04-26T21:43:54.008Z,9.40
2018-04-26T21:46:21.581Z,9.38
2018-04-26T21:48:49.267Z,13.40
2018-04-26T21:51:23.655Z,11.48
2018-04-26T21:53:57.079Z,14.87
2018-04-26T21:56:31.488Z,11.93
2018-04-26T21:59:06.220Z,11.05
2018-04-26T22:01:40.512Z,15.73
2018-04-26T22:04:22.953Z,12.25
2018-04-26T22:06:51.286Z,13.50
2018-04-26T22:09:18.845Z,14.82
2018-04-26T22:11:46.399Z,15.57
2018-04-26T22:14:14.482Z,12.02
2018-04-26T22:16:42.032Z,11.75
2018-04-26T22:19:09.585Z,15.80
2018-04-26T22:21:37.149Z,12.15
2018-04-26T22:24:04.799Z,16.87
2018-04-26T22:26:32.371Z,14.43
2018-04-26T22:29:00.370Z,10.18
2018-04-26T22:31:27.938Z,14.85
2018-04-26T22:33:55.542Z,12.35
2018-04-26T22:36:23.465Z,8.90
2018-04-26T22:38:51.031Z,8.75
2018-04-26T22:41:18.564Z,20.88
2018-04-26T22:43:46.459Z,5.47
2018-04-26T22:46:14.833Z,8.82
2018-04-26T22:48:43.145Z,12.05
2018-04-26T22:51:10.997Z,10.40
2018-04-26T22:53:38.631Z,14.10
2018-04-26T22:56:06.948Z,16.20
2018-04-26T22:58:34.835Z,12.07
2018-04-26T23:01:02.389Z,16.83
2018-04-26T23:03:29.939Z,13.40
2018-04-26T23:05:57.926Z,13.15
2018-04-26T23:08:25.485Z,15.65
2018-04-26T23:10:53.021Z,17.20
2018-04-26T23:13:20.921Z,13.10
2018-04-26T23:15:48.445Z,10.48
2018-04-26T23:18:15.976Z,20.08
2018-04-26T23:20:44.674Z,17.55
2018-04-26T23:23:12.227Z,7.95
2018-04-26T23:25:40.528Z,10.48
2018-04-26T23:28:08.121Z,12.82
2018-04-26T23:30:35.663Z,11.18
2018-04-26T23:33:03.396Z,12.73
2018-04-26T23:35:31.212Z,6.95
2018-04-26T23:37:58.853Z,10.02
2018-04-26T23:40:26.430Z,9.68
2018-04-26T23:42:54.357Z,10.35
2018-04-26T23:45:21.832Z,12.05
2018-04-26T23:47:49.380Z,14.87
2018-04-26T23:50:17.389Z,11.05
2018-04-26T23:52:44.966Z,5.95
2018-04-26T23:55:13.332Z,8.60
2018-04-26T23:57:41.150Z,9.70
